Whitefish, Canada
Current Conditions -  °F | °C
As of 3:47 PM on Friday 31 Oct 2014 (Local Time) from CYSB Reporting Station
Light Snow Light Snow  
Wind Chill: 18°   Ceiling: 2900
Heat Index: 30°   Visibility: 3mi
Dew Point: 25°   Wind: 17mph
Humidity: 80%   Direction: 20°NNE
Pressure: 30.12"   Gusts: 31mph
Location:  46.37°N, 81.32°W
Report Text: CYSB 311947Z 02015G27KT 3SM -SN SCT014 OVC029 M01/M04 A3012 RMK SF3SC5 SLP219
Loading
Personal Weather Stations






























Interactive Weather Map New forecast layout! Learn more

10-Day Weather Forecast

Advertisements
Track Severe Weather on mobile